createdAt,value
2017-08-20T00:00:44.996Z,17.13
2017-08-20T00:03:13.239Z,19.83
2017-08-20T00:05:41.514Z,18.30
2017-08-20T00:08:09.875Z,23.80
2017-08-20T00:10:38.111Z,29.33
2017-08-20T00:13:06.382Z,18.73
2017-08-20T00:15:34.826Z,15.13
2017-08-20T00:18:03.526Z,22.53
2017-08-20T00:20:31.780Z,18.83
2017-08-20T00:23:00.052Z,15.90
2017-08-20T00:25:28.306Z,18.53
2017-08-20T00:27:56.564Z,13.47
2017-08-20T00:30:25.576Z,18.53
2017-08-20T00:32:54.612Z,16.07
2017-08-20T00:35:22.859Z,19.40
2017-08-20T00:37:51.100Z,16.70
2017-08-20T00:40:20.110Z,19.73
2017-08-20T00:42:48.416Z,14.60
2017-08-20T00:45:17.399Z,11.80
2017-08-20T00:47:45.674Z,15.43
2017-08-20T00:50:13.912Z,15.07
2017-08-20T00:52:42.176Z,26.20
2017-08-20T00:55:11.454Z,12.50
2017-08-20T00:57:39.725Z,19.60
2017-08-20T01:00:08.002Z,16.50
2017-08-20T01:02:36.665Z,9.80
2017-08-20T01:05:04.974Z,13.70
2017-08-20T01:07:33.205Z,12.90
2017-08-20T01:10:01.489Z,10.60
2017-08-20T01:12:29.770Z,11.10
2017-08-20T01:14:58.007Z,14.63
2017-08-20T01:17:26.217Z,9.80
2017-08-20T01:19:54.510Z,9.47
2017-08-20T01:22:23.516Z,34.80
2017-08-20T01:24:51.746Z,13.63
2017-08-20T01:27:20.757Z,15.00
2017-08-20T01:29:49.998Z,27.60
2017-08-20T01:32:18.214Z,17.13
2017-08-20T01:34:46.438Z,10.00
2017-08-20T01:37:14.702Z,13.27
2017-08-20T01:39:42.993Z,18.83
2017-08-20T01:42:11.226Z,13.93
2017-08-20T01:44:40.266Z,10.37
2017-08-20T01:47:08.535Z,10.90
2017-08-20T01:49:36.787Z,16.80
2017-08-20T01:52:05.406Z,17.33
2017-08-20T01:54:33.681Z,18.90
2017-08-20T01:57:01.910Z,8.70
2017-08-20T01:59:30.236Z,15.20
2017-08-20T02:01:58.502Z,12.90
2017-08-20T02:04:26.794Z,19.67
2017-08-20T02:06:55.026Z,17.10
2017-08-20T02:09:23.410Z,23.57
2017-08-20T02:11:51.727Z,18.63
2017-08-20T02:14:19.962Z,11.87
2017-08-20T02:16:48.997Z,12.00
2017-08-20T02:19:17.245Z,15.20
2017-08-20T02:21:46.258Z,20.47
2017-08-20T02:24:14.545Z,20.43
2017-08-20T02:26:42.770Z,17.03
2017-08-20T02:29:11.790Z,20.70
2017-08-20T02:31:40.075Z,27.43
2017-08-20T02:34:08.346Z,15.90
2017-08-20T02:36:36.574Z,9.43
2017-08-20T02:39:04.840Z,12.50
2017-08-20T02:41:33.062Z,14.60
2017-08-20T02:44:02.075Z,28.40
2017-08-20T02:46:30.332Z,10.73
2017-08-20T02:48:58.580Z,15.83
2017-08-20T02:51:26.809Z,15.47
2017-08-20T02:53:55.072Z,15.30
2017-08-20T02:56:23.326Z,15.00
2017-08-20T02:58:51.564Z,15.57
2017-08-20T03:01:19.861Z,15.00
2017-08-20T03:03:48.126Z,19.63
2017-08-20T03:06:16.394Z,25.00
2017-08-20T03:08:44.623Z,33.17
2017-08-20T03:11:13.631Z,11.70
2017-08-20T03:13:41.891Z,25.57
2017-08-20T03:16:10.897Z,20.73
2017-08-20T03:18:39.942Z,14.20
2017-08-20T03:21:08.981Z,23.33
2017-08-20T03:23:38.003Z,22.17
2017-08-20T03:26:06.254Z,22.43
2017-08-20T03:28:35.250Z,28.27
2017-08-20T03:31:04.276Z,16.43
2017-08-20T03:33:32.518Z,14.20
2017-08-20T03:36:01.550Z,23.13
2017-08-20T03:38:29.823Z,18.00
2017-08-20T03:40:58.055Z,27.37
2017-08-20T03:43:26.283Z,33.87
2017-08-20T03:45:54.552Z,23.20
2017-08-20T03:48:22.786Z,21.30
2017-08-20T03:50:51.035Z,21.50
2017-08-20T03:53:19.261Z,15.13
2017-08-20T03:55:47.530Z,25.60
2017-08-20T03:58:15.784Z,27.70
2017-08-20T04:00:44.046Z,18.70
2017-08-20T04:03:12.312Z,24.90
2017-08-20T04:05:40.549Z,30.77
2017-08-20T04:08:08.830Z,34.93
2017-08-20T04:10:37.104Z,27.50
2017-08-20T04:13:06.130Z,35.07
2017-08-20T04:15:34.393Z,35.27
2017-08-20T04:18:02.667Z,41.57
2017-08-20T04:20:30.920Z,26.23
2017-08-20T04:22:59.912Z,35.10
2017-08-20T04:25:28.932Z,31.73
2017-08-20T04:27:57.186Z,43.33
2017-08-20T04:30:26.197Z,38.63
2017-08-20T04:32:54.450Z,36.77
2017-08-20T04:35:22.713Z,33.17
2017-08-20T04:37:50.963Z,29.80
2017-08-20T04:40:19.211Z,25.20
2017-08-20T04:42:47.469Z,34.03
2017-08-20T04:45:15.715Z,26.93
2017-08-20T04:47:43.970Z,37.80
2017-08-20T04:50:12.221Z,37.40
2017-08-20T04:52:40.477Z,43.37
2017-08-20T04:55:08.754Z,40.27
2017-08-20T04:57:37.052Z,38.10
2017-08-20T05:00:05.300Z,35.10
2017-08-20T05:02:33.593Z,35.27
2017-08-20T05:05:02.161Z,44.03
2017-08-20T05:07:30.452Z,32.63
2017-08-20T05:09:58.694Z,31.70
2017-08-20T05:12:26.945Z,33.20
2017-08-20T05:14:55.182Z,29.73
2017-08-20T05:17:23.453Z,34.43
2017-08-20T05:19:51.693Z,27.00
2017-08-20T05:22:19.953Z,33.23
2017-08-20T05:24:48.206Z,23.70
2017-08-20T05:27:16.474Z,28.20
2017-08-20T05:29:44.699Z,27.60
2017-08-20T05:32:12.960Z,39.87
2017-08-20T05:34:41.220Z,33.37
2017-08-20T05:37:09.502Z,38.13
2017-08-20T05:39:37.721Z,27.07
2017-08-20T05:42:06.722Z,35.80
2017-08-20T05:44:35.759Z,37.33
2017-08-20T05:47:04.014Z,38.43
2017-08-20T05:49:32.284Z,26.00
2017-08-20T05:52:01.290Z,31.77
2017-08-20T05:54:29.549Z,33.93
2017-08-20T05:56:58.595Z,26.03
2017-08-20T05:59:26.830Z,30.10
2017-08-20T06:01:55.069Z,37.10
2017-08-20T06:04:23.322Z,28.03
2017-08-20T06:06:51.611Z,36.67
2017-08-20T06:09:19.865Z,25.80
2017-08-20T06:11:48.135Z,29.37
2017-08-20T06:14:16.379Z,23.57
2017-08-20T06:16:45.414Z,25.63
2017-08-20T06:19:13.653Z,27.93
2017-08-20T06:21:41.935Z,30.53
2017-08-20T06:24:10.956Z,31.80
2017-08-20T06:26:39.263Z,41.30
2017-08-20T06:29:07.522Z,25.43
2017-08-20T06:31:35.758Z,42.40
2017-08-20T06:34:04.780Z,26.53
2017-08-20T06:36:33.066Z,23.90
2017-08-20T06:39:01.445Z,36.37
2017-08-20T06:41:29.769Z,25.40
2017-08-20T06:43:58.105Z,37.07
2017-08-20T06:46:26.352Z,20.47
2017-08-20T06:48:55.363Z,29.00
2017-08-20T06:51:23.610Z,29.27
2017-08-20T06:53:52.663Z,43.90
2017-08-20T06:56:20.905Z,32.70
2017-08-20T06:58:49.185Z,34.23
2017-08-20T07:01:17.431Z,38.30
2017-08-20T07:03:46.486Z,28.03
2017-08-20T07:06:14.759Z,30.43
2017-08-20T07:08:42.998Z,33.63
2017-08-20T07:11:11.269Z,30.57
2017-08-20T07:13:39.537Z,37.50
2017-08-20T07:16:07.794Z,33.73
2017-08-20T07:18:36.027Z,32.77
2017-08-20T07:21:04.305Z,31.33
2017-08-20T07:23:32.537Z,28.30
2017-08-20T07:26:01.566Z,36.87
2017-08-20T07:28:29.808Z,40.57
2017-08-20T07:30:58.103Z,29.23
2017-08-20T07:33:26.344Z,27.00
2017-08-20T07:35:54.610Z,35.27
2017-08-20T07:38:22.884Z,35.73
2017-08-20T07:40:51.134Z,40.20
2017-08-20T07:43:19.396Z,39.00
2017-08-20T07:45:47.684Z,39.97
2017-08-20T07:48:15.923Z,31.77
2017-08-20T07:50:44.966Z,30.93
2017-08-20T07:53:13.226Z,37.30
2017-08-20T07:55:41.497Z,25.87
2017-08-20T07:58:09.751Z,28.87
2017-08-20T08:00:38.795Z,33.80
2017-08-20T08:03:07.057Z,29.50
2017-08-20T08:05:35.285Z,29.23
2017-08-20T08:08:03.554Z,34.60
2017-08-20T08:10:31.826Z,34.63
2017-08-20T08:13:00.098Z,33.57
2017-08-20T08:15:28.329Z,31.40
2017-08-20T08:17:56.616Z,24.17
2017-08-20T08:20:24.897Z,28.47
2017-08-20T08:22:53.195Z,21.50
2017-08-20T08:25:22.031Z,23.47
2017-08-20T08:27:51.063Z,23.73
2017-08-20T08:30:19.317Z,22.90
2017-08-20T08:32:47.595Z,28.97
2017-08-20T08:35:15.861Z,23.40
2017-08-20T08:37:44.121Z,23.60
2017-08-20T08:40:12.409Z,32.17
2017-08-20T08:42:40.661Z,22.13
2017-08-20T08:45:08.961Z,25.63
2017-08-20T08:47:37.240Z,25.73
2017-08-20T08:50:05.539Z,31.30
2017-08-20T08:52:33.806Z,37.70
2017-08-20T08:55:02.091Z,23.30
2017-08-20T08:57:31.145Z,21.70
2017-08-20T08:59:59.372Z,26.93
2017-08-20T09:02:27.695Z,22.23
2017-08-20T09:04:55.922Z,23.70
2017-08-20T09:07:24.965Z,25.37
2017-08-20T09:09:53.266Z,17.33
2017-08-20T09:12:21.538Z,18.97
2017-08-20T09:14:49.791Z,17.50
2017-08-20T09:17:18.044Z,25.67
2017-08-20T09:19:46.302Z,27.53
2017-08-20T09:22:15.330Z,21.03
2017-08-20T09:24:43.614Z,17.57
2017-08-20T09:27:12.390Z,28.57
2017-08-20T09:29:40.622Z,21.87
2017-08-20T09:32:08.919Z,22.03
2017-08-20T09:34:37.209Z,16.63
2017-08-20T09:37:05.470Z,19.60
2017-08-20T09:39:34.511Z,20.67
2017-08-20T09:42:02.786Z,16.73
2017-08-20T09:44:31.035Z,12.90
2017-08-20T09:46:59.310Z,17.33
2017-08-20T09:49:28.334Z,12.93
2017-08-20T09:51:56.604Z,18.47
2017-08-20T09:54:24.865Z,21.47
2017-08-20T09:56:53.109Z,18.87
2017-08-20T09:59:22.130Z,20.43
2017-08-20T10:01:50.438Z,13.50
2017-08-20T10:04:18.700Z,20.80
2017-08-20T10:06:46.965Z,19.80
2017-08-20T10:09:15.233Z,17.70
2017-08-20T10:11:43.506Z,23.47
2017-08-20T10:14:12.508Z,16.63
2017-08-20T10:16:41.527Z,13.77
2017-08-20T10:19:09.863Z,12.03
2017-08-20T10:21:38.149Z,13.20
2017-08-20T10:24:06.438Z,18.07
2017-08-20T10:26:34.734Z,13.73
2017-08-20T10:29:03.734Z,23.03
2017-08-20T10:31:31.984Z,13.77
2017-08-20T10:34:00.235Z,16.17
2017-08-20T10:36:29.272Z,12.83
2017-08-20T10:38:57.556Z,12.00
2017-08-20T10:41:25.838Z,13.03
2017-08-20T10:43:54.062Z,12.87
2017-08-20T10:46:22.379Z,26.43
2017-08-20T10:48:50.699Z,15.00
2017-08-20T10:51:18.982Z,23.70
2017-08-20T10:53:47.267Z,19.07
2017-08-20T10:56:15.514Z,16.93
2017-08-20T10:58:43.788Z,24.07
2017-08-20T11:01:12.040Z,13.20
2017-08-20T11:03:40.293Z,15.73
2017-08-20T11:06:08.556Z,9.33
2017-08-20T11:08:36.766Z,11.97
2017-08-20T11:11:05.022Z,7.37
2017-08-20T11:13:33.306Z,14.47
2017-08-20T11:16:02.434Z,15.80
2017-08-20T11:18:30.700Z,11.43
2017-08-20T11:20:58.917Z,5.83
2017-08-20T11:23:27.176Z,16.20
2017-08-20T11:25:55.485Z,8.50
2017-08-20T11:28:23.734Z,9.53
2017-08-20T11:30:52.007Z,7.40
2017-08-20T11:33:20.277Z,16.00
2017-08-20T11:35:48.504Z,16.07
2017-08-20T11:38:17.525Z,9.00
2017-08-20T11:40:46.563Z,23.07
2017-08-20T11:43:14.824Z,9.77
2017-08-20T11:45:43.102Z,10.53
2017-08-20T11:48:11.348Z,12.83
2017-08-20T11:50:40.251Z,10.23
2017-08-20T11:53:08.546Z,11.77
2017-08-20T11:55:36.836Z,12.67
2017-08-20T11:58:05.112Z,12.83
2017-08-20T12:00:33.390Z,10.20
2017-08-20T12:03:01.685Z,12.23
2017-08-20T12:05:29.957Z,11.13
2017-08-20T12:07:58.236Z,20.93
2017-08-20T12:10:26.556Z,14.80
2017-08-20T12:12:54.821Z,14.50
2017-08-20T12:15:23.857Z,13.00
2017-08-20T12:17:52.371Z,8.60
2017-08-20T12:20:20.739Z,15.73
2017-08-20T12:22:49.065Z,13.67
2017-08-20T12:25:18.087Z,13.83
2017-08-20T12:27:46.399Z,12.60
2017-08-20T12:30:14.655Z,9.17
2017-08-20T12:32:42.929Z,9.60
2017-08-20T12:35:11.189Z,15.17
2017-08-20T12:37:39.489Z,23.70
2017-08-20T12:40:08.328Z,14.23
2017-08-20T12:42:36.594Z,16.87
2017-08-20T12:45:04.862Z,16.47
2017-08-20T12:47:33.138Z,19.33
2017-08-20T12:50:01.418Z,16.57
2017-08-20T12:52:29.695Z,14.37
2017-08-20T12:54:57.976Z,11.87
2017-08-20T12:57:26.267Z,14.37
2017-08-20T12:59:54.562Z,8.87
2017-08-20T13:02:22.811Z,17.90
2017-08-20T13:04:51.065Z,13.60
2017-08-20T13:07:19.378Z,8.87
2017-08-20T13:09:48.498Z,21.53
2017-08-20T13:12:16.796Z,13.20
2017-08-20T13:14:45.064Z,9.60
2017-08-20T13:17:13.435Z,17.57
2017-08-20T13:19:41.761Z,8.60
2017-08-20T13:22:10.037Z,6.77
2017-08-20T13:24:38.320Z,11.40
2017-08-20T13:27:06.629Z,6.77
2017-08-20T13:29:34.883Z,10.33
2017-08-20T13:32:03.172Z,9.27
2017-08-20T13:34:32.410Z,14.73
2017-08-20T13:37:00.705Z,4.90
2017-08-20T13:39:28.979Z,9.00
2017-08-20T13:41:57.235Z,4.40
2017-08-20T13:44:25.481Z,5.73
2017-08-20T13:46:53.955Z,7.43
2017-08-20T13:49:22.274Z,5.33
2017-08-20T13:51:50.551Z,7.30
2017-08-20T13:54:18.804Z,4.77
2017-08-20T13:56:47.123Z,12.57
2017-08-20T13:59:15.390Z,7.30
2017-08-20T14:01:43.641Z,8.00
2017-08-20T14:04:11.929Z,4.93
2017-08-20T14:06:40.991Z,7.60
2017-08-20T14:09:09.229Z,13.03
2017-08-20T14:11:37.809Z,7.93
2017-08-20T14:14:06.493Z,10.13
2017-08-20T14:16:34.787Z,6.13
2017-08-20T14:19:03.150Z,14.73
2017-08-20T14:21:31.403Z,10.97
2017-08-20T14:24:00.419Z,10.80
2017-08-20T14:26:28.819Z,9.07
2017-08-20T14:28:57.050Z,7.10
2017-08-20T14:31:25.357Z,19.83
2017-08-20T14:33:53.598Z,7.93
2017-08-20T14:36:22.631Z,3.83
2017-08-20T14:38:50.898Z,6.30
2017-08-20T14:41:20.007Z,7.40
2017-08-20T14:43:48.284Z,5.10
2017-08-20T14:46:16.511Z,8.87
2017-08-20T14:48:45.558Z,9.03
2017-08-20T14:51:14.036Z,13.10
2017-08-20T14:53:42.285Z,8.37
2017-08-20T14:56:10.585Z,4.80
2017-08-20T14:58:38.837Z,9.07
2017-08-20T15:01:07.097Z,11.50
2017-08-20T15:03:36.150Z,7.03
2017-08-20T15:06:04.431Z,9.70
2017-08-20T15:08:32.705Z,4.53
2017-08-20T15:11:01.030Z,11.80
2017-08-20T15:13:29.333Z,7.10
2017-08-20T15:15:57.583Z,14.13
2017-08-20T15:18:25.853Z,9.40
2017-08-20T15:20:54.112Z,16.13
2017-08-20T15:23:22.551Z,12.37
2017-08-20T15:25:50.856Z,10.10
2017-08-20T15:28:20.427Z,15.40
2017-08-20T15:30:48.801Z,11.27
2017-08-20T15:33:17.117Z,20.93
2017-08-20T15:35:45.402Z,10.17
2017-08-20T15:38:14.475Z,6.10
2017-08-20T15:40:42.763Z,5.67
2017-08-20T15:43:11.010Z,11.63
2017-08-20T15:45:39.310Z,11.30
2017-08-20T15:48:07.895Z,6.03
2017-08-20T15:50:36.191Z,12.93
2017-08-20T15:53:04.625Z,8.60
2017-08-20T15:55:32.922Z,9.83
2017-08-20T15:58:01.207Z,6.53
2017-08-20T16:00:29.532Z,10.00
2017-08-20T16:02:58.577Z,9.50
2017-08-20T16:05:26.872Z,11.77
2017-08-20T16:07:55.148Z,12.67
2017-08-20T16:10:23.418Z,9.00
2017-08-20T16:12:51.689Z,10.70
2017-08-20T16:15:20.122Z,13.23
2017-08-20T16:17:48.409Z,8.27
2017-08-20T16:20:16.678Z,7.13
2017-08-20T16:22:44.952Z,9.43
2017-08-20T16:25:13.241Z,11.70
2017-08-20T16:27:41.499Z,15.03
2017-08-20T16:30:09.820Z,13.07
2017-08-20T16:32:38.095Z,10.67
2017-08-20T16:35:06.368Z,7.93
2017-08-20T16:37:34.877Z,15.10
2017-08-20T16:40:03.172Z,13.40
2017-08-20T16:42:31.424Z,10.30
2017-08-20T16:44:59.724Z,12.53
2017-08-20T16:47:28.004Z,9.57
2017-08-20T16:49:56.284Z,13.30
2017-08-20T16:52:24.588Z,9.53
2017-08-20T16:54:52.918Z,9.43
2017-08-20T16:57:21.249Z,16.80
2017-08-20T16:59:50.300Z,8.73
2017-08-20T17:02:18.576Z,21.07
2017-08-20T17:04:46.877Z,11.10
2017-08-20T17:07:15.921Z,12.83
2017-08-20T17:09:44.229Z,12.50
2017-08-20T17:12:12.471Z,19.00
2017-08-20T17:14:41.744Z,15.70
2017-08-20T17:17:10.820Z,16.00
2017-08-20T17:19:39.119Z,21.23
2017-08-20T17:22:08.184Z,7.23
2017-08-20T17:24:36.453Z,12.40
2017-08-20T17:27:04.757Z,13.80
2017-08-20T17:29:33.057Z,13.03
2017-08-20T17:32:02.090Z,15.57
2017-08-20T17:34:30.394Z,12.60
2017-08-20T17:36:58.762Z,8.17
2017-08-20T17:39:27.017Z,19.40
2017-08-20T17:41:55.275Z,9.10
2017-08-20T17:44:23.728Z,7.90
2017-08-20T17:46:52.043Z,14.50
2017-08-20T17:49:21.045Z,16.73
2017-08-20T17:51:49.488Z,12.17
2017-08-20T17:54:17.777Z,9.87
2017-08-20T17:56:46.003Z,5.03
2017-08-20T17:59:14.388Z,5.70
2017-08-20T18:01:42.677Z,8.50
2017-08-20T18:04:10.982Z,11.43
2017-08-20T18:06:40.040Z,8.20
2017-08-20T18:09:08.335Z,15.97
2017-08-20T18:11:36.655Z,7.60
2017-08-20T18:14:05.787Z,15.80
2017-08-20T18:16:34.068Z,8.33
2017-08-20T18:19:02.355Z,13.23
2017-08-20T18:21:30.677Z,7.33
2017-08-20T18:23:59.764Z,13.47
2017-08-20T18:26:30.864Z,11.33
2017-08-20T18:28:59.792Z,6.07
2017-08-20T18:31:28.963Z,12.60
2017-08-20T18:33:58.428Z,11.93
2017-08-20T18:36:26.729Z,19.97
2017-08-20T18:38:55.015Z,12.33
2017-08-20T18:41:25.493Z,11.83
2017-08-20T18:43:55.518Z,14.40
2017-08-20T18:46:24.862Z,19.70
2017-08-20T18:48:53.439Z,10.70
2017-08-20T18:51:22.147Z,11.77
2017-08-20T18:53:50.390Z,12.50
2017-08-20T18:56:18.987Z,8.30
2017-08-20T18:58:50.530Z,20.93
2017-08-20T19:01:20.280Z,14.80
2017-08-20T19:03:49.347Z,5.70
2017-08-20T19:06:17.804Z,9.10
2017-08-20T19:08:47.211Z,6.83
2017-08-20T19:11:15.656Z,11.60
2017-08-20T19:13:46.244Z,15.87
2017-08-20T19:16:16.468Z,8.97
2017-08-20T19:18:48.072Z,10.60
2017-08-20T19:21:19.010Z,10.37
2017-08-20T19:23:47.714Z,12.50
2017-08-20T19:26:19.394Z,18.43
2017-08-20T19:28:49.575Z,14.17
2017-08-20T19:31:20.906Z,13.53
2017-08-20T19:33:51.114Z,19.33
2017-08-20T19:36:20.515Z,15.77
2017-08-20T19:38:49.627Z,11.93
2017-08-20T19:41:19.320Z,12.10
2017-08-20T19:43:51.280Z,9.07
2017-08-20T19:46:22.008Z,18.03
2017-08-20T19:48:50.883Z,18.43
2017-08-20T19:51:19.288Z,15.77
2017-08-20T19:53:48.804Z,13.60
2017-08-20T19:56:17.580Z,15.73
2017-08-20T19:58:46.062Z,18.80
2017-08-20T20:01:14.389Z,14.70
2017-08-20T20:03:43.407Z,17.07
2017-08-20T20:06:11.846Z,24.60
2017-08-20T20:08:40.238Z,23.53
2017-08-20T20:11:08.484Z,19.63
2017-08-20T20:13:36.904Z,16.63
2017-08-20T20:16:05.148Z,17.93
2017-08-20T20:18:33.504Z,15.73
2017-08-20T20:21:01.835Z,17.47
2017-08-20T20:23:30.186Z,13.93
2017-08-20T20:25:58.800Z,10.80
2017-08-20T20:28:27.094Z,16.63
2017-08-20T20:30:55.339Z,11.90
2017-08-20T20:33:23.868Z,16.93
2017-08-20T20:35:52.174Z,12.50
2017-08-20T20:38:20.477Z,7.63
2017-08-20T20:40:48.741Z,16.60
2017-08-20T20:43:17.024Z,8.33
2017-08-20T20:45:45.360Z,10.63
2017-08-20T20:48:13.805Z,13.03
2017-08-20T20:50:42.054Z,14.00
2017-08-20T20:53:10.623Z,26.77
2017-08-20T20:55:38.895Z,8.47
2017-08-20T20:58:07.157Z,12.70
2017-08-20T21:00:35.465Z,22.53
2017-08-20T21:03:04.077Z,12.37
2017-08-20T21:05:32.372Z,17.73
2017-08-20T21:08:00.673Z,17.97
2017-08-20T21:10:28.982Z,17.17
2017-08-20T21:12:58.170Z,25.23
2017-08-20T21:15:26.428Z,12.23
2017-08-20T21:17:55.428Z,24.83
2017-08-20T21:20:23.703Z,15.63
2017-08-20T21:22:52.736Z,15.13
2017-08-20T21:25:21.026Z,21.47
2017-08-20T21:27:49.271Z,12.60
2017-08-20T21:30:18.350Z,18.17
2017-08-20T21:32:46.619Z,23.23
2017-08-20T21:35:14.920Z,12.07
2017-08-20T21:37:43.200Z,10.70
2017-08-20T21:40:11.490Z,12.37
2017-08-20T21:42:39.778Z,24.07
2017-08-20T21:45:08.041Z,16.10
2017-08-20T21:47:36.325Z,19.73
2017-08-20T21:50:04.778Z,21.33
2017-08-20T21:52:33.167Z,17.20
2017-08-20T21:55:01.456Z,18.60
2017-08-20T21:57:29.792Z,16.80
2017-08-20T21:59:58.835Z,26.13
2017-08-20T22:02:27.110Z,13.60
2017-08-20T22:04:55.478Z,12.73
2017-08-20T22:07:23.776Z,18.87
2017-08-20T22:09:52.005Z,13.97
2017-08-20T22:12:20.266Z,21.37
2017-08-20T22:14:49.281Z,19.70
2017-08-20T22:17:17.546Z,21.33
2017-08-20T22:19:46.602Z,11.30
2017-08-20T22:22:14.858Z,11.97
2017-08-20T22:24:43.135Z,17.13
2017-08-20T22:27:11.377Z,12.30
2017-08-20T22:29:39.685Z,19.97
2017-08-20T22:32:07.922Z,14.87
2017-08-20T22:34:36.934Z,31.43
2017-08-20T22:37:05.225Z,15.63
2017-08-20T22:39:33.595Z,21.30
2017-08-20T22:42:01.859Z,16.93
2017-08-20T22:44:30.889Z,17.47
2017-08-20T22:46:59.261Z,15.33
2017-08-20T22:49:28.289Z,21.53
2017-08-20T22:51:56.564Z,17.67
2017-08-20T22:54:24.831Z,16.20
2017-08-20T22:56:53.085Z,20.80
2017-08-20T22:59:21.348Z,14.53
2017-08-20T23:01:49.615Z,16.73
2017-08-20T23:04:18.667Z,11.17
2017-08-20T23:06:47.322Z,15.53
2017-08-20T23:09:15.549Z,20.17
2017-08-20T23:11:43.820Z,19.93
2017-08-20T23:14:12.073Z,19.73
2017-08-20T23:16:40.462Z,14.63
2017-08-20T23:19:08.722Z,37.80
2017-08-20T23:21:36.971Z,23.63
2017-08-20T23:24:05.383Z,19.17
2017-08-20T23:26:33.617Z,18.83
2017-08-20T23:29:02.106Z,14.47
2017-08-20T23:31:30.376Z,13.50
2017-08-20T23:33:58.665Z,23.37
2017-08-20T23:36:26.925Z,24.70
2017-08-20T23:38:55.946Z,15.23
2017-08-20T23:41:24.162Z,24.20
2017-08-20T23:43:52.463Z,19.60
2017-08-20T23:46:20.736Z,28.63
2017-08-20T23:48:49.803Z,14.13
2017-08-20T23:51:18.037Z,11.20
2017-08-20T23:53:46.282Z,20.40
2017-08-20T23:56:14.555Z,16.50
2017-08-20T23:58:42.793Z,23.33
